createdAt,value
2019-03-21T00:04:59.132Z,12.20
2019-03-21T00:10:45.542Z,12.30
2019-03-21T00:15:50.514Z,12.10
2019-03-21T00:20:55.285Z,12.20
2019-03-21T00:26:00.268Z,12.10
2019-03-21T00:31:05.062Z,12.30
2019-03-21T00:36:09.811Z,12.10
2019-03-21T00:41:14.538Z,12.20
2019-03-21T00:46:19.260Z,12.20
2019-03-21T00:51:24.062Z,12.10
2019-03-21T00:56:28.766Z,12.10
2019-03-21T01:01:33.583Z,12.20
2019-03-21T01:06:38.323Z,12.10
2019-03-21T01:11:43.076Z,12.20
2019-03-21T01:16:47.803Z,12.00
2019-03-21T01:21:52.547Z,12.10
2019-03-21T01:26:57.296Z,12.00
2019-03-21T01:32:02.043Z,12.10
2019-03-21T01:37:06.761Z,12.00
2019-03-21T01:42:11.491Z,11.90
2019-03-21T01:47:16.190Z,11.70
2019-03-21T01:52:20.945Z,11.70
2019-03-21T01:57:25.769Z,11.80
2019-03-21T02:02:30.490Z,12.00
2019-03-21T02:07:35.215Z,12.00
2019-03-21T02:12:39.938Z,11.60
2019-03-21T02:17:44.661Z,11.30
2019-03-21T02:22:49.519Z,11.30
2019-03-21T02:27:54.303Z,11.20
2019-03-21T02:33:05.300Z,11.50
2019-03-21T02:38:10.071Z,11.50
2019-03-21T02:48:18.749Z,11.00
2019-03-21T02:53:23.471Z,11.10
2019-03-21T02:58:28.228Z,11.40
2019-03-21T03:03:32.960Z,11.30
2019-03-21T03:08:37.739Z,11.10
2019-03-21T03:13:43.562Z,11.30
2019-03-21T03:18:48.302Z,11.30
2019-03-21T03:23:53.142Z,11.40
2019-03-21T03:28:57.921Z,11.50
2019-03-21T03:34:02.665Z,11.40
2019-03-21T03:39:08.850Z,11.40
2019-03-21T03:44:13.641Z,11.30
2019-03-21T03:49:18.372Z,11.40
2019-03-21T03:54:23.237Z,11.30
2019-03-21T03:59:27.945Z,11.40
2019-03-21T04:04:32.826Z,11.60
2019-03-21T04:09:37.557Z,11.50
2019-03-21T04:14:42.420Z,11.60
2019-03-21T04:19:47.139Z,11.60
2019-03-21T04:24:51.921Z,11.30
2019-03-21T04:29:56.681Z,11.50
2019-03-21T04:35:01.764Z,11.50
2019-03-21T04:40:07.146Z,11.40
2019-03-21T04:45:14.754Z,11.20
2019-03-21T04:50:22.162Z,11.30
2019-03-21T04:55:26.867Z,11.40
2019-03-21T05:00:34.433Z,11.40
2019-03-21T05:05:39.146Z,11.40
2019-03-21T05:10:43.891Z,11.40
2019-03-21T05:15:48.637Z,11.40
2019-03-21T05:20:53.356Z,11.60
2019-03-21T05:26:09.390Z,11.50
2019-03-21T05:31:17.744Z,11.60
2019-03-21T05:36:22.577Z,11.70
2019-03-21T05:41:27.290Z,11.60
2019-03-21T05:46:32.519Z,11.70
2019-03-21T05:51:37.252Z,11.80
2019-03-21T05:56:41.979Z,11.80
2019-03-21T06:01:46.806Z,11.80
2019-03-21T06:07:06.281Z,12.00
2019-03-21T06:12:11.074Z,12.00
2019-03-21T06:17:15.826Z,12.00
2019-03-21T06:22:52.456Z,11.90
2019-03-21T06:27:57.396Z,12.10
2019-03-21T06:33:02.147Z,11.80
2019-03-21T06:38:06.879Z,11.60
2019-03-21T06:43:11.618Z,11.20
2019-03-21T06:48:16.422Z,11.10
2019-03-21T06:53:21.256Z,11.00
2019-03-21T06:58:26.013Z,10.80
2019-03-21T07:03:33.003Z,10.90
2019-03-21T07:08:37.493Z,10.80
2019-03-21T07:13:42.215Z,10.90
2019-03-21T07:18:46.982Z,11.00
2019-03-21T07:23:51.741Z,11.30
2019-03-21T07:28:56.701Z,11.40
2019-03-21T07:34:01.807Z,11.40
2019-03-21T07:39:08.493Z,11.20
2019-03-21T07:44:13.306Z,11.30
2019-03-21T07:49:18.094Z,11.30
2019-03-21T07:54:23.015Z,11.40
2019-03-21T07:59:27.726Z,11.50
2019-03-21T08:04:32.455Z,11.30
2019-03-21T08:09:37.260Z,11.50
2019-03-21T08:14:42.189Z,11.70
2019-03-21T08:19:47.122Z,11.60
2019-03-21T08:24:51.855Z,11.40
2019-03-21T08:29:56.615Z,11.40
2019-03-21T08:35:01.414Z,11.80
2019-03-21T08:40:07.483Z,11.90
2019-03-21T08:45:12.234Z,11.80
2019-03-21T08:50:16.980Z,12.00
2019-03-21T08:55:21.760Z,12.10
2019-03-21T09:00:34.175Z,12.20
2019-03-21T09:05:33.096Z,12.50
2019-03-21T09:10:37.913Z,12.30
2019-03-21T09:15:42.755Z,12.10
2019-03-21T09:20:47.550Z,12.40
2019-03-21T09:25:52.297Z,12.30
2019-03-21T09:30:57.099Z,12.70
2019-03-21T09:36:01.917Z,12.70
2019-03-21T09:41:06.672Z,13.10
2019-03-21T09:46:11.448Z,13.20
2019-03-21T09:51:16.223Z,13.30
2019-03-21T09:56:21.004Z,13.70
2019-03-21T10:01:25.786Z,14.40
2019-03-21T10:06:30.495Z,15.00
2019-03-21T10:31:52.586Z,23.70
2019-03-21T10:36:57.308Z,24.70
2019-03-21T10:42:02.080Z,25.50
2019-03-21T10:47:06.895Z,25.70
2019-03-21T10:52:11.755Z,27.20
2019-03-21T10:57:16.486Z,26.30
2019-03-21T11:02:21.306Z,25.90
2019-03-21T11:12:29.007Z,25.20
2019-03-21T11:17:33.731Z,25.60
2019-03-21T11:22:38.470Z,26.20
2019-03-21T11:27:43.263Z,26.60
2019-03-21T11:32:48.007Z,27.40
2019-03-21T11:37:52.761Z,26.30
2019-03-21T11:42:57.647Z,26.40
2019-03-21T11:48:02.438Z,26.70
2019-03-21T11:53:07.205Z,26.40
2019-03-21T11:58:11.937Z,26.30
2019-03-21T12:03:16.648Z,26.70
2019-03-21T12:08:21.394Z,25.50
2019-03-21T12:13:26.168Z,25.40
2019-03-21T12:18:30.942Z,25.20
2019-03-21T12:23:35.709Z,25.20
2019-03-21T12:33:44.500Z,26.30
2019-03-21T12:38:49.306Z,27.00
2019-03-21T12:43:54.113Z,26.80
2019-03-21T12:48:58.859Z,26.90
2019-03-21T12:54:03.661Z,26.70
2019-03-21T12:59:08.468Z,25.80
2019-03-21T13:04:13.268Z,26.10
2019-03-21T13:09:18.088Z,26.10
2019-03-21T13:14:22.808Z,26.20
2019-03-21T13:19:27.560Z,26.70
2019-03-21T13:24:32.333Z,26.70
2019-03-21T13:29:37.090Z,27.40
2019-03-21T13:34:41.889Z,28.00
2019-03-21T13:39:46.686Z,27.80
2019-03-21T13:44:51.420Z,27.20
2019-03-21T13:49:56.135Z,26.40
2019-03-21T13:55:00.903Z,27.10
2019-03-21T14:00:06.776Z,27.20
2019-03-21T14:05:11.701Z,28.00
2019-03-21T14:10:16.508Z,29.00
2019-03-21T14:15:21.345Z,28.60
2019-03-21T14:20:26.152Z,28.60
2019-03-21T14:25:30.966Z,29.20
2019-03-21T14:30:35.736Z,28.90
2019-03-21T14:35:40.504Z,28.70
2019-03-21T14:40:45.219Z,29.20
2019-03-21T14:45:49.934Z,29.70
2019-03-21T14:50:54.673Z,28.70
2019-03-21T14:55:59.406Z,28.60
2019-03-21T15:01:04.683Z,28.50
2019-03-21T15:06:09.547Z,28.70
2019-03-21T15:11:17.281Z,28.90
2019-03-21T15:16:20.773Z,29.50
2019-03-21T15:21:25.589Z,29.20
2019-03-21T15:26:30.327Z,29.70
2019-03-21T15:31:36.065Z,29.10
2019-03-21T15:36:40.867Z,29.30
2019-03-21T15:41:45.591Z,28.30
2019-03-21T15:46:50.309Z,27.20
2019-03-21T17:18:09.825Z,17.00
2019-03-21T17:23:14.593Z,16.70
2019-03-21T17:28:19.382Z,16.50
2019-03-21T17:33:25.118Z,16.50
2019-03-21T17:38:29.881Z,16.20
2019-03-21T17:43:34.760Z,16.00
2019-03-21T17:48:39.474Z,16.10
2019-03-21T17:53:44.248Z,15.90
2019-03-21T17:58:48.956Z,15.80
2019-03-21T18:03:53.762Z,15.60
2019-03-21T18:08:58.525Z,15.50
2019-03-21T18:14:03.334Z,15.40
2019-03-21T18:19:08.735Z,15.30
2019-03-21T18:24:13.576Z,15.20
2019-03-21T18:29:18.406Z,15.10
2019-03-21T18:34:23.174Z,15.00
2019-03-21T18:39:28.108Z,14.90
2019-03-21T18:44:32.863Z,14.70
2019-03-21T18:49:37.608Z,14.70
2019-03-21T18:54:42.343Z,14.40
2019-03-21T18:59:47.089Z,14.20
2019-03-21T19:04:51.917Z,14.20
2019-03-21T19:09:56.701Z,14.10
2019-03-21T19:15:01.457Z,14.00
2019-03-21T19:20:07.119Z,13.90
2019-03-21T19:25:18.523Z,14.00
2019-03-21T19:30:19.120Z,13.80
2019-03-21T19:35:23.961Z,13.90
